Meteorología y climatología de Navarra
Datos de la estación - Meteo Navarra

Estación de Arangoiti GN

Altitud 1353 m.


Datos desde el 30/06/2020 hasta el 01/07/2020 en horario solar
Los datos son PROVISIONALES

Anterior Página 1 de 1 Siguiente Descargar: Formato para Excel 2000 o superior   Formato csv   Formato para OpenOffice Calc
Fecha Temperatura Humedad relativa Radiación global Insolación Precipitación Vel. viento 10 m Vel. viento 10 m Dir. viento 10 m
ºC % W/m² s l/m² m/s km/h º
30/06/2020 0:00 18.7 41 0.0 0 0.0 1.1 4.0 270
30/06/2020 0:10 18.9 40 0.0 0 0.0 1.1 4.0 267
30/06/2020 0:20 18.7 41 0.0 0 0.0 1.3 4.7 276
30/06/2020 0:30 18.2 50 0.0 0 0.0 2.4 8.6 295
30/06/2020 0:40 18.0 47 0.0 0 0.0 1.8 6.6 298
30/06/2020 0:50 17.8 54 0.0 0 0.0 1.6 5.7 300
30/06/2020 1:00 16.8 55 0.0 0 0.0 1.5 5.3 295
30/06/2020 1:10 16.6 46 0.0 0 0.0 2.1 7.4 349
30/06/2020 1:20 16.7 40 0.0 0 0.0 1.8 6.3 16
30/06/2020 1:30 17.0 38 0.0 0 0.0 0.6 2.1 36
30/06/2020 1:40 17.3 35 0.0 0 0.0 1.7 6.2 31
30/06/2020 1:50 17.2 45 0.0 0 0.0 0.5 1.7 77
30/06/2020 2:00 17.2 52 0.0 0 0.0 0.4 1.3 132
30/06/2020 2:10 17.4 52 0.0 0 0.0 0.1 0.5 115
30/06/2020 2:20 17.2 55 0.0 0 0.0 1.2 4.1 139
30/06/2020 2:30 16.9 58 0.0 0 0.0 2.3 8.2 141
30/06/2020 2:40 17.0 61 0.0 0 0.0 3.0 10.6 148
30/06/2020 2:50 16.7 64 0.0 0 0.0 2.9 10.4 154
30/06/2020 3:00 16.7 64 0.0 0 0.0 3.0 10.7 166
30/06/2020 3:10 16.6 64 0.0 0 0.0 2.8 9.9 165
30/06/2020 3:20 16.3 67 0.0 0 0.0 2.8 10.2 152
30/06/2020 3:30 16.1 71 0.0 0 0.0 3.1 11.1 154
30/06/2020 3:40 15.7 75 0.0 0 0.0 3.2 11.4 152
30/06/2020 3:50 15.7 77 0.0 0 0.0 3.4 12.1 156
30/06/2020 4:00 15.2 82 0.0 0 0.0 3.4 12.2 154
30/06/2020 4:10 15.2 79 0.0 0 0.0 3.5 12.6 186
30/06/2020 4:20 15.4 73 0.0 0 0.0 4.6 16.6 200
30/06/2020 4:30 15.9 71 2.8 0 0.0 4.7 17.0 207
30/06/2020 4:40 16.1 83 17.6 0 0.0 4.8 17.3 209
30/06/2020 4:50 15.3 83 22.2 0 0.0 4.6 16.5 199
30/06/2020 5:00 15.1 88 27.8 0 0.0 3.5 12.6 176
30/06/2020 5:10 14.6 90 35.5 0 0.0 3.0 10.9 177
30/06/2020 5:20 15.5 85 54.3 172 0.0 3.7 13.4 182
30/06/2020 5:30 15.5 83 109.7 600 0.0 3.5 12.7 179
30/06/2020 5:40 16.0 80 129.4 600 0.0 3.2 11.5 169
30/06/2020 5:50 16.5 78 161.0 600 0.0 2.6 9.3 166
30/06/2020 6:00 16.1 78 191.1 600 0.0 2.7 9.8 169
30/06/2020 6:10 16.3 81 221.2 600 0.0 3.1 11.2 163
30/06/2020 6:20 16.6 80 252.2 600 0.0 3.1 11.1 161
30/06/2020 6:30 16.3 83 284.2 600 0.0 4.2 15.1 154
30/06/2020 6:40 16.5 83 317.1 600 0.0 5.0 18.0 152
30/06/2020 6:50 16.7 80 348.9 600 0.0 4.8 17.2 158
30/06/2020 7:00 16.7 84 381.4 600 0.0 5.0 18.0 155
30/06/2020 7:10 15.4 95 389.1 600 0.0 4.4 15.8 148
30/06/2020 7:20 15.3 96 409.0 600 0.0 4.3 15.6 149
30/06/2020 7:30 15.4 97 399.5 588 0.0 4.9 17.8 153
30/06/2020 7:40 15.5 97 384.5 548 0.0 5.7 20.4 155
30/06/2020 7:50 15.7 98 341.6 480 0.0 6.0 21.5 155
30/06/2020 8:00 15.7 98 316.4 378 0.0 6.4 23.0 160
30/06/2020 8:10 15.9 98 382.2 546 0.0 6.5 23.5 163
30/06/2020 8:20 15.9 98 408.2 570 0.0 6.6 23.8 161
30/06/2020 8:30 15.9 98 407.4 516 0.0 6.7 23.9 161
30/06/2020 8:40 16.1 97 367.8 322 0.0 6.6 23.8 163
30/06/2020 8:50 16.2 97 356.3 148 0.0 6.9 24.9 161
30/06/2020 9:00 16.3 96 370.6 154 0.0 6.8 24.4 163
30/06/2020 9:10 16.6 94 393.7 232 0.0 6.0 21.5 160
30/06/2020 9:20 17.0 93 503.2 540 0.0 6.9 24.9 165
30/06/2020 9:30 16.8 93 402.8 206 0.0 6.9 24.9 166
30/06/2020 9:40 17.4 90 508.3 524 0.0 7.0 25.2 168
30/06/2020 9:50 18.1 87 516.7 366 0.0 5.9 21.1 165
30/06/2020 10:00 18.9 84 711.5 508 0.0 6.4 23.0 169
30/06/2020 10:10 19.3 82 838.0 586 0.0 5.8 20.7 178
30/06/2020 10:20 20.1 79 758.2 446 0.0 5.4 19.5 180
30/06/2020 10:30 20.7 76 896.0 590 0.0 5.0 17.9 169
30/06/2020 10:40 21.4 72 933.0 600 0.0 5.4 19.5 170
30/06/2020 10:50 21.7 70 938.0 600 0.0 5.5 19.9 161
30/06/2020 11:00 21.2 74 961.0 600 0.0 5.7 20.4 166
30/06/2020 11:10 21.7 70 969.0 600 0.0 5.5 19.7 170
30/06/2020 11:20 21.2 69 931.0 558 0.0 6.4 22.9 182
30/06/2020 11:30 21.4 71 874.0 526 0.0 5.7 20.6 183
30/06/2020 11:40 22.1 70 870.0 518 0.0 6.9 24.7 172
30/06/2020 11:50 22.2 71 972.0 570 0.0 5.4 19.5 175
30/06/2020 12:00 22.3 69 1009.0 600 0.0 5.4 19.5 188
30/06/2020 12:10 23.0 65 1002.0 600 0.0 5.1 18.3 188
30/06/2020 12:20 22.6 68 991.0 600 0.0 4.7 16.7 188
30/06/2020 12:30 24.0 63 1001.0 600 0.0 4.5 16.1 188
30/06/2020 12:40 23.5 64 991.0 600 0.0 4.7 16.8 190
30/06/2020 12:50 23.8 63 986.0 600 0.0 5.3 19.2 178
30/06/2020 13:00 24.6 60 964.0 600 0.0 5.4 19.5 173
30/06/2020 13:10 23.8 62 963.0 600 0.0 5.0 18.0 181
30/06/2020 13:20 24.6 60 911.0 574 0.0 5.7 20.3 175
30/06/2020 13:30 24.2 61 942.0 600 0.0 5.8 20.8 185
30/06/2020 13:40 25.3 57 956.0 600 0.0 5.3 19.0 183
30/06/2020 13:50 24.9 61 928.0 600 0.0 5.6 20.2 180
30/06/2020 14:00 24.9 58 911.0 600 0.0 5.3 19.1 180
30/06/2020 14:10 23.5 60 821.0 600 0.0 4.2 15.0 192
30/06/2020 14:20 24.3 59 826.0 522 0.0 3.1 11.2 195
30/06/2020 14:30 23.8 61 313.4 52 0.0 3.8 13.7 176
30/06/2020 14:40 24.0 60 474.4 308 0.0 4.3 15.3 188
30/06/2020 14:50 23.4 62 520.5 300 0.0 5.3 19.1 169
30/06/2020 15:00 24.1 60 568.1 340 0.0 4.5 16.1 164
30/06/2020 15:10 25.1 56 821.0 600 0.0 4.5 16.3 163
30/06/2020 15:20 25.1 54 763.8 600 0.0 4.2 15.2 176
30/06/2020 15:30 24.3 57 540.4 548 0.0 2.5 9.0 193
30/06/2020 15:40 24.7 59 449.3 352 0.0 2.6 9.4 177
30/06/2020 15:50 24.5 57 462.3 582 0.0 3.7 13.1 185
30/06/2020 16:00 24.3 59 380.5 296 0.0 3.0 10.9 186
30/06/2020 16:10 23.6 62 235.3 0 0.0 3.0 10.8 190
30/06/2020 16:20 23.7 64 234.3 0 0.0 3.1 11.0 167
30/06/2020 16:30 23.7 64 215.7 52 0.0 2.5 9.1 173
30/06/2020 16:40 23.0 65 158.2 0 0.0 1.7 6.2 181
30/06/2020 16:50 23.2 65 275.2 282 0.0 5.0 18.1 170
30/06/2020 17:00 22.9 68 219.1 0 0.0 5.2 18.8 178
30/06/2020 17:10 22.4 68 130.9 0 0.0 4.4 15.8 178
30/06/2020 17:20 22.4 68 131.3 0 0.0 4.1 14.6 186
30/06/2020 17:30 22.1 69 131.4 0 0.0 5.4 19.4 179
30/06/2020 17:40 22.0 70 125.3 0 0.0 6.3 22.8 180
30/06/2020 17:50 21.6 70 96.2 0 0.0 7.5 27.1 187
30/06/2020 18:00 21.4 71 95.8 0 0.0 6.4 23.2 182
30/06/2020 18:10 21.2 72 76.6 0 0.0 6.9 24.8 189
30/06/2020 18:20 21.0 72 63.8 0 0.0 6.1 22.1 184
30/06/2020 18:30 21.0 73 56.3 0 0.0 5.2 18.7 176
30/06/2020 18:40 21.0 72 46.5 0 0.0 6.4 23.1 173
30/06/2020 18:50 20.7 73 43.7 0 0.0 6.7 24.0 184
30/06/2020 19:00 20.6 74 40.1 0 0.0 6.1 21.9 181
30/06/2020 19:10 20.4 72 35.8 0 0.0 7.1 25.7 191
30/06/2020 19:20 20.5 72 29.5 0 0.0 5.4 19.5 185
30/06/2020 19:30 20.4 71 23.8 0 0.0 6.5 23.4 198
30/06/2020 19:40 20.2 70 17.2 0 0.0 7.0 25.1 211
30/06/2020 19:50 20.4 70 2.3 0 0.0 7.4 26.7 201
30/06/2020 20:00 20.7 68 0.0 0 0.0 4.9 17.6 200
30/06/2020 20:10 20.9 66 0.0 0 0.0 2.4 8.7 234
30/06/2020 20:20 21.0 66 0.0 0 0.0 3.2 11.7 187
30/06/2020 20:30 20.8 69 0.0 0 0.0 4.2 15.1 161
30/06/2020 20:40 20.2 71 0.0 0 0.0 4.2 15.0 177
30/06/2020 20:50 20.0 62 0.0 0 0.0 5.9 21.2 188
30/06/2020 21:00 20.8 59 0.0 0 0.0 4.9 17.7 214
30/06/2020 21:10 20.8 61 0.0 0 0.0 3.9 14.1 190
30/06/2020 21:20 20.2 68 0.0 0 0.0 5.4 19.4 164
30/06/2020 21:30 20.4 71 0.0 0 0.0 4.7 16.7 166
30/06/2020 21:40 20.2 69 0.0 0 0.0 2.3 8.2 167
30/06/2020 21:50 19.6 73 0.0 0 0.0 2.7 9.9 244
30/06/2020 22:00 19.7 65 0.0 0 0.0 4.0 14.5 248
30/06/2020 22:10 19.3 61 0.0 0 0.0 2.4 8.6 259
30/06/2020 22:20 19.8 68 0.0 0 0.0 2.3 8.2 179
30/06/2020 22:30 19.8 69 0.0 0 0.0 2.6 9.4 142
30/06/2020 22:40 18.8 67 0.0 0 0.0 3.3 12.0 116
30/06/2020 22:50 19.5 70 0.0 0 0.0 2.9 10.3 160
30/06/2020 23:00 19.3 69 0.0 0 0.0 3.1 11.1 153
30/06/2020 23:10 19.5 70 0.0 0 0.0 4.8 17.2 121
30/06/2020 23:20 19.5 69 0.0 0 0.0 3.8 13.6 120
30/06/2020 23:30 19.4 73 0.0 0 0.0 6.2 22.4 154
30/06/2020 23:40 18.7 78 0.0 0 0.0 6.8 24.4 158
30/06/2020 23:50 19.3 75 0.0 0 0.0 6.6 23.8 138
Anterior Página 1 de 1 Siguiente
Los datos de precipitación registrados en estaciones que están en cumbres son inferiores a lo real, como consecuencia del efecto del viento y de la nieve.


NOTA: Tipo de datos según el color:
   - Valores diarios o 10 minutos correctos
   - Valores diarios calculados a partir de un número de datos 10 minutos menor que 144 y mayor que 120, o de un número de datos semihorarios menor que 48 y mayor que 40 (caso de las estaciones de INTIA y del Ministerio)
   - Valores diez minutos estimados


Contacto        Enlaces        Aviso legal